sensor_id;sensor_type;location;lat;lon;timestamp;P1;durP1;ratioP1;P2;durP2;ratioP2
31368;SDS011;18004;48.416;10.066;2023-10-31T00:01:51;5.40;;;1.10;;
31368;SDS011;18004;48.416;10.066;2023-10-31T00:04:17;6.28;;;1.30;;
31368;SDS011;18004;48.416;10.066;2023-10-31T00:06:43;0.43;;;0.43;;
31368;SDS011;18004;48.416;10.066;2023-10-31T00:09:09;0.80;;;0.60;;
31368;SDS011;18004;48.416;10.066;2023-10-31T00:11:36;0.30;;;0.30;;
31368;SDS011;18004;48.416;10.066;2023-10-31T00:14:09;0.50;;;0.50;;
31368;SDS011;18004;48.416;10.066;2023-10-31T00:16:35;1.00;;;0.28;;
31368;SDS011;18004;48.416;10.066;2023-10-31T00:19:01;2.25;;;0.35;;
31368;SDS011;18004;48.416;10.066;2023-10-31T00:21:26;0.77;;;0.30;;
31368;SDS011;18004;48.416;10.066;2023-10-31T00:23:52;0.73;;;0.30;;
31368;SDS011;18004;48.416;10.066;2023-10-31T00:26:18;0.38;;;0.30;;
31368;SDS011;18004;48.416;10.066;2023-10-31T00:28:44;0.30;;;0.30;;
31368;SDS011;18004;48.416;10.066;2023-10-31T00:31:10;0.38;;;0.38;;
31368;SDS011;18004;48.416;10.066;2023-10-31T00:33:37;0.68;;;0.40;;
31368;SDS011;18004;48.416;10.066;2023-10-31T00:36:03;0.75;;;0.50;;
31368;SDS011;18004;48.416;10.066;2023-10-31T00:38:29;0.30;;;0.30;;
31368;SDS011;18004;48.416;10.066;2023-10-31T00:40:55;0.30;;;0.30;;
31368;SDS011;18004;48.416;10.066;2023-10-31T00:43:21;1.25;;;0.47;;
31368;SDS011;18004;48.416;10.066;2023-10-31T00:45:47;0.40;;;0.40;;
31368;SDS011;18004;48.416;10.066;2023-10-31T00:48:13;1.65;;;0.30;;
31368;SDS011;18004;48.416;10.066;2023-10-31T00:50:38;0.40;;;0.40;;
31368;SDS011;18004;48.416;10.066;2023-10-31T00:53:04;2.13;;;1.15;;
31368;SDS011;18004;48.416;10.066;2023-10-31T00:55:30;4.72;;;0.90;;
31368;SDS011;18004;48.416;10.066;2023-10-31T00:57:56;0.70;;;0.45;;
31368;SDS011;18004;48.416;10.066;2023-10-31T01:00:22;0.25;;;0.25;;
31368;SDS011;18004;48.416;10.066;2023-10-31T01:02:47;0.38;;;0.38;;
31368;SDS011;18004;48.416;10.066;2023-10-31T01:05:13;0.20;;;0.20;;
31368;SDS011;18004;48.416;10.066;2023-10-31T01:07:39;0.30;;;0.30;;
31368;SDS011;18004;48.416;10.066;2023-10-31T01:10:05;0.45;;;0.30;;
31368;SDS011;18004;48.416;10.066;2023-10-31T01:12:31;0.30;;;0.30;;
31368;SDS011;18004;48.416;10.066;2023-10-31T01:14:57;0.57;;;0.55;;
31368;SDS011;18004;48.416;10.066;2023-10-31T01:17:23;0.52;;;0.40;;
31368;SDS011;18004;48.416;10.066;2023-10-31T01:19:49;0.50;;;0.43;;
31368;SDS011;18004;48.416;10.066;2023-10-31T01:22:15;0.40;;;0.40;;
31368;SDS011;18004;48.416;10.066;2023-10-31T01:24:41;0.40;;;0.40;;
31368;SDS011;18004;48.416;10.066;2023-10-31T01:27:06;0.20;;;0.20;;
31368;SDS011;18004;48.416;10.066;2023-10-31T01:29:33;0.43;;;0.35;;
31368;SDS011;18004;48.416;10.066;2023-10-31T01:32:02;0.38;;;0.38;;
31368;SDS011;18004;48.416;10.066;2023-10-31T01:34:28;1.15;;;0.40;;
31368;SDS011;18004;48.416;10.066;2023-10-31T01:36:53;0.30;;;0.30;;
31368;SDS011;18004;48.416;10.066;2023-10-31T01:39:19;0.45;;;0.43;;
31368;SDS011;18004;48.416;10.066;2023-10-31T01:41:45;0.30;;;0.30;;
31368;SDS011;18004;48.416;10.066;2023-10-31T01:44:11;0.50;;;0.40;;
31368;SDS011;18004;48.416;10.066;2023-10-31T01:46:37;0.35;;;0.35;;
31368;SDS011;18004;48.416;10.066;2023-10-31T01:49:03;0.50;;;0.50;;
31368;SDS011;18004;48.416;10.066;2023-10-31T01:51:29;0.77;;;0.65;;
31368;SDS011;18004;48.416;10.066;2023-10-31T01:53:55;0.40;;;0.35;;
31368;SDS011;18004;48.416;10.066;2023-10-31T01:56:22;1.38;;;0.60;;
31368;SDS011;18004;48.416;10.066;2023-10-31T01:58:48;0.40;;;0.40;;
31368;SDS011;18004;48.416;10.066;2023-10-31T02:01:15;2.45;;;1.65;;
31368;SDS011;18004;48.416;10.066;2023-10-31T02:03:41;12.38;;;9.63;;
31368;SDS011;18004;48.416;10.066;2023-10-31T02:06:07;16.42;;;11.35;;
31368;SDS011;18004;48.416;10.066;2023-10-31T02:08:32;10.43;;;8.30;;
31368;SDS011;18004;48.416;10.066;2023-10-31T02:10:58;5.40;;;4.90;;
31368;SDS011;18004;48.416;10.066;2023-10-31T02:13:24;2.00;;;1.80;;
31368;SDS011;18004;48.416;10.066;2023-10-31T02:15:50;8.18;;;6.07;;
31368;SDS011;18004;48.416;10.066;2023-10-31T02:18:17;15.75;;;12.07;;
31368;SDS011;18004;48.416;10.066;2023-10-31T02:20:43;10.90;;;8.52;;
31368;SDS011;18004;48.416;10.066;2023-10-31T02:23:09;6.88;;;4.63;;
31368;SDS011;18004;48.416;10.066;2023-10-31T02:25:35;6.97;;;2.67;;
31368;SDS011;18004;48.416;10.066;2023-10-31T02:28:01;5.57;;;2.63;;
31368;SDS011;18004;48.416;10.066;2023-10-31T02:30:27;4.93;;;2.35;;
31368;SDS011;18004;48.416;10.066;2023-10-31T02:32:52;3.20;;;1.65;;
31368;SDS011;18004;48.416;10.066;2023-10-31T02:35:18;3.05;;;1.48;;
31368;SDS011;18004;48.416;10.066;2023-10-31T02:37:45;5.28;;;1.05;;
31368;SDS011;18004;48.416;10.066;2023-10-31T02:40:11;1.00;;;0.73;;
31368;SDS011;18004;48.416;10.066;2023-10-31T02:42:38;4.40;;;1.00;;
31368;SDS011;18004;48.416;10.066;2023-10-31T02:45:04;1.25;;;0.88;;
31368;SDS011;18004;48.416;10.066;2023-10-31T02:47:30;1.08;;;0.98;;
31368;SDS011;18004;48.416;10.066;2023-10-31T02:49:56;1.13;;;1.02;;
31368;SDS011;18004;48.416;10.066;2023-10-31T02:52:22;1.55;;;0.80;;
31368;SDS011;18004;48.416;10.066;2023-10-31T02:54:48;1.65;;;1.20;;
31368;SDS011;18004;48.416;10.066;2023-10-31T02:57:14;1.55;;;1.25;;
31368;SDS011;18004;48.416;10.066;2023-10-31T02:59:40;1.33;;;0.82;;
31368;SDS011;18004;48.416;10.066;2023-10-31T03:02:06;1.00;;;0.90;;
31368;SDS011;18004;48.416;10.066;2023-10-31T03:04:32;3.75;;;1.10;;
31368;SDS011;18004;48.416;10.066;2023-10-31T03:06:58;1.70;;;1.00;;
31368;SDS011;18004;48.416;10.066;2023-10-31T03:09:24;1.95;;;1.08;;
31368;SDS011;18004;48.416;10.066;2023-10-31T03:11:50;1.13;;;1.02;;
31368;SDS011;18004;48.416;10.066;2023-10-31T03:14:15;2.13;;;1.35;;
31368;SDS011;18004;48.416;10.066;2023-10-31T03:16:41;1.80;;;1.23;;
31368;SDS011;18004;48.416;10.066;2023-10-31T03:19:07;3.95;;;1.77;;
31368;SDS011;18004;48.416;10.066;2023-10-31T03:21:33;1.98;;;1.50;;
31368;SDS011;18004;48.416;10.066;2023-10-31T03:23:59;6.78;;;3.78;;
31368;SDS011;18004;48.416;10.066;2023-10-31T03:26:25;9.07;;;4.30;;
31368;SDS011;18004;48.416;10.066;2023-10-31T03:28:51;17.92;;;7.50;;
31368;SDS011;18004;48.416;10.066;2023-10-31T03:31:22;16.17;;;8.77;;
31368;SDS011;18004;48.416;10.066;2023-10-31T03:33:51;13.65;;;6.30;;
31368;SDS011;18004;48.416;10.066;2023-10-31T03:36:18;12.13;;;5.63;;
31368;SDS011;18004;48.416;10.066;2023-10-31T03:38:44;12.43;;;5.18;;
31368;SDS011;18004;48.416;10.066;2023-10-31T03:41:10;19.10;;;5.10;;
31368;SDS011;18004;48.416;10.066;2023-10-31T03:43:36;8.40;;;5.60;;
31368;SDS011;18004;48.416;10.066;2023-10-31T03:46:02;7.15;;;3.20;;
31368;SDS011;18004;48.416;10.066;2023-10-31T03:48:28;3.30;;;2.50;;
31368;SDS011;18004;48.416;10.066;2023-10-31T03:50:53;2.03;;;1.40;;
31368;SDS011;18004;48.416;10.066;2023-10-31T03:53:19;1.60;;;1.30;;
31368;SDS011;18004;48.416;10.066;2023-10-31T03:55:45;1.40;;;1.10;;
31368;SDS011;18004;48.416;10.066;2023-10-31T03:58:11;1.48;;;1.33;;
31368;SDS011;18004;48.416;10.066;2023-10-31T04:00:38;1.05;;;0.95;;
31368;SDS011;18004;48.416;10.066;2023-10-31T04:03:04;0.77;;;0.75;;
31368;SDS011;18004;48.416;10.066;2023-10-31T04:05:30;3.25;;;1.48;;
31368;SDS011;18004;48.416;10.066;2023-10-31T04:07:56;1.63;;;1.23;;
31368;SDS011;18004;48.416;10.066;2023-10-31T04:10:21;1.48;;;1.20;;
31368;SDS011;18004;48.416;10.066;2023-10-31T04:12:47;1.67;;;1.02;;
31368;SDS011;18004;48.416;10.066;2023-10-31T04:15:13;1.25;;;1.10;;
31368;SDS011;18004;48.416;10.066;2023-10-31T04:17:39;3.60;;;1.08;;
31368;SDS011;18004;48.416;10.066;2023-10-31T04:20:05;4.03;;;1.30;;
31368;SDS011;18004;48.416;10.066;2023-10-31T04:22:31;5.35;;;1.80;;
31368;SDS011;18004;48.416;10.066;2023-10-31T04:24:57;10.50;;;2.85;;
31368;SDS011;18004;48.416;10.066;2023-10-31T04:27:23;7.15;;;3.55;;
31368;SDS011;18004;48.416;10.066;2023-10-31T04:29:49;5.93;;;2.80;;
31368;SDS011;18004;48.416;10.066;2023-10-31T04:32:14;7.55;;;4.82;;
31368;SDS011;18004;48.416;10.066;2023-10-31T04:34:40;10.95;;;6.15;;
31368;SDS011;18004;48.416;10.066;2023-10-31T04:37:06;5.18;;;1.88;;
31368;SDS011;18004;48.416;10.066;2023-10-31T04:39:32;2.70;;;1.80;;
31368;SDS011;18004;48.416;10.066;2023-10-31T04:41:58;3.53;;;1.77;;
31368;SDS011;18004;48.416;10.066;2023-10-31T04:44:23;2.22;;;1.30;;
31368;SDS011;18004;48.416;10.066;2023-10-31T04:46:49;5.85;;;3.83;;
31368;SDS011;18004;48.416;10.066;2023-10-31T04:49:15;4.18;;;2.95;;
31368;SDS011;18004;48.416;10.066;2023-10-31T04:51:41;4.13;;;1.77;;
31368;SDS011;18004;48.416;10.066;2023-10-31T04:54:07;5.68;;;2.58;;
31368;SDS011;18004;48.416;10.066;2023-10-31T04:56:33;7.47;;;4.03;;
31368;SDS011;18004;48.416;10.066;2023-10-31T04:58:58;14.88;;;6.32;;
31368;SDS011;18004;48.416;10.066;2023-10-31T05:01:24;13.27;;;6.28;;
31368;SDS011;18004;48.416;10.066;2023-10-31T05:03:50;18.48;;;9.25;;
31368;SDS011;18004;48.416;10.066;2023-10-31T05:06:20;15.15;;;7.95;;
31368;SDS011;18004;48.416;10.066;2023-10-31T05:08:47;18.13;;;10.05;;
31368;SDS011;18004;48.416;10.066;2023-10-31T05:11:16;16.92;;;9.70;;
31368;SDS011;18004;48.416;10.066;2023-10-31T05:13:42;8.90;;;6.75;;
31368;SDS011;18004;48.416;10.066;2023-10-31T05:16:09;6.38;;;5.43;;
31368;SDS011;18004;48.416;10.066;2023-10-31T05:18:37;4.97;;;2.88;;
31368;SDS011;18004;48.416;10.066;2023-10-31T05:21:04;3.45;;;3.15;;
31368;SDS011;18004;48.416;10.066;2023-10-31T05:23:30;8.27;;;5.05;;
31368;SDS011;18004;48.416;10.066;2023-10-31T05:25:56;3.30;;;3.00;;
31368;SDS011;18004;48.416;10.066;2023-10-31T05:28:22;3.38;;;2.85;;
31368;SDS011;18004;48.416;10.066;2023-10-31T05:30:48;2.38;;;1.33;;
31368;SDS011;18004;48.416;10.066;2023-10-31T05:33:15;0.98;;;0.63;;
31368;SDS011;18004;48.416;10.066;2023-10-31T05:35:41;2.30;;;1.02;;
31368;SDS011;18004;48.416;10.066;2023-10-31T05:38:07;0.52;;;0.40;;
31368;SDS011;18004;48.416;10.066;2023-10-31T05:40:33;0.75;;;0.45;;
31368;SDS011;18004;48.416;10.066;2023-10-31T05:43:03;0.65;;;0.45;;
31368;SDS011;18004;48.416;10.066;2023-10-31T05:45:29;1.02;;;0.68;;
31368;SDS011;18004;48.416;10.066;2023-10-31T05:47:56;0.75;;;0.50;;
31368;SDS011;18004;48.416;10.066;2023-10-31T05:50:22;2.50;;;0.47;;
31368;SDS011;18004;48.416;10.066;2023-10-31T05:52:47;1.25;;;0.52;;
31368;SDS011;18004;48.416;10.066;2023-10-31T05:55:13;0.45;;;0.40;;
31368;SDS011;18004;48.416;10.066;2023-10-31T05:57:39;2.95;;;0.43;;
31368;SDS011;18004;48.416;10.066;2023-10-31T06:00:05;4.28;;;0.60;;
31368;SDS011;18004;48.416;10.066;2023-10-31T06:02:32;0.95;;;0.47;;
31368;SDS011;18004;48.416;10.066;2023-10-31T06:04:58;0.57;;;0.40;;
31368;SDS011;18004;48.416;10.066;2023-10-31T06:07:24;1.85;;;0.50;;
31368;SDS011;18004;48.416;10.066;2023-10-31T06:09:50;1.10;;;0.43;;
31368;SDS011;18004;48.416;10.066;2023-10-31T06:12:15;0.88;;;0.45;;
31368;SDS011;18004;48.416;10.066;2023-10-31T06:14:41;1.05;;;0.40;;
31368;SDS011;18004;48.416;10.066;2023-10-31T06:17:08;0.32;;;0.32;;
31368;SDS011;18004;48.416;10.066;2023-10-31T06:19:35;2.92;;;0.28;;
31368;SDS011;18004;48.416;10.066;2023-10-31T06:22:01;1.25;;;0.40;;
31368;SDS011;18004;48.416;10.066;2023-10-31T06:24:27;1.45;;;0.50;;
31368;SDS011;18004;48.416;10.066;2023-10-31T06:26:53;1.30;;;0.60;;
31368;SDS011;18004;48.416;10.066;2023-10-31T06:29:19;0.63;;;0.45;;
31368;SDS011;18004;48.416;10.066;2023-10-31T06:31:44;0.43;;;0.30;;
31368;SDS011;18004;48.416;10.066;2023-10-31T06:34:10;1.00;;;0.40;;
31368;SDS011;18004;48.416;10.066;2023-10-31T06:36:36;9.30;;;4.10;;
31368;SDS011;18004;48.416;10.066;2023-10-31T06:39:02;13.93;;;9.07;;
31368;SDS011;18004;48.416;10.066;2023-10-31T06:41:28;20.30;;;11.05;;
31368;SDS011;18004;48.416;10.066;2023-10-31T06:43:54;15.15;;;9.90;;
31368;SDS011;18004;48.416;10.066;2023-10-31T06:46:19;10.27;;;5.60;;
31368;SDS011;18004;48.416;10.066;2023-10-31T06:48:45;9.68;;;7.03;;
31368;SDS011;18004;48.416;10.066;2023-10-31T06:51:11;11.50;;;8.50;;
31368;SDS011;18004;48.416;10.066;2023-10-31T06:53:36;11.13;;;8.05;;
31368;SDS011;18004;48.416;10.066;2023-10-31T06:56:02;9.85;;;7.70;;
31368;SDS011;18004;48.416;10.066;2023-10-31T06:58:28;16.92;;;11.30;;
31368;SDS011;18004;48.416;10.066;2023-10-31T07:00:54;15.50;;;11.00;;
31368;SDS011;18004;48.416;10.066;2023-10-31T07:03:23;22.60;;;13.27;;
31368;SDS011;18004;48.416;10.066;2023-10-31T07:05:49;25.90;;;14.18;;
31368;SDS011;18004;48.416;10.066;2023-10-31T07:08:15;12.95;;;8.45;;
31368;SDS011;18004;48.416;10.066;2023-10-31T07:10:40;9.18;;;5.13;;
31368;SDS011;18004;48.416;10.066;2023-10-31T07:13:06;6.88;;;3.60;;
31368;SDS011;18004;48.416;10.066;2023-10-31T07:15:32;2.40;;;1.17;;
31368;SDS011;18004;48.416;10.066;2023-10-31T07:18:04;4.13;;;1.00;;
31368;SDS011;18004;48.416;10.066;2023-10-31T07:20:31;1.92;;;1.10;;
31368;SDS011;18004;48.416;10.066;2023-10-31T07:22:57;2.03;;;1.80;;
31368;SDS011;18004;48.416;10.066;2023-10-31T07:25:22;5.82;;;5.10;;
31368;SDS011;18004;48.416;10.066;2023-10-31T07:27:48;8.02;;;5.35;;
31368;SDS011;18004;48.416;10.066;2023-10-31T07:30:14;4.60;;;3.67;;
31368;SDS011;18004;48.416;10.066;2023-10-31T07:32:40;4.50;;;3.10;;
31368;SDS011;18004;48.416;10.066;2023-10-31T07:35:09;6.25;;;4.43;;
31368;SDS011;18004;48.416;10.066;2023-10-31T07:37:34;1.25;;;1.15;;
31368;SDS011;18004;48.416;10.066;2023-10-31T07:40:00;2.28;;;1.00;;
31368;SDS011;18004;48.416;10.066;2023-10-31T07:42:26;3.42;;;1.20;;
31368;SDS011;18004;48.416;10.066;2023-10-31T07:44:52;5.20;;;2.72;;
31368;SDS011;18004;48.416;10.066;2023-10-31T07:47:18;5.25;;;3.05;;
31368;SDS011;18004;48.416;10.066;2023-10-31T07:49:43;5.93;;;3.40;;
31368;SDS011;18004;48.416;10.066;2023-10-31T07:52:09;11.65;;;5.03;;
31368;SDS011;18004;48.416;10.066;2023-10-31T07:54:38;16.35;;;7.28;;
31368;SDS011;18004;48.416;10.066;2023-10-31T07:57:05;14.02;;;8.75;;
31368;SDS011;18004;48.416;10.066;2023-10-31T07:59:33;12.80;;;9.20;;
31368;SDS011;18004;48.416;10.066;2023-10-31T08:02:00;13.23;;;8.38;;
31368;SDS011;18004;48.416;10.066;2023-10-31T08:04:26;13.77;;;9.48;;
31368;SDS011;18004;48.416;10.066;2023-10-31T08:06:53;6.65;;;4.85;;
31368;SDS011;18004;48.416;10.066;2023-10-31T08:09:19;1.13;;;0.98;;
31368;SDS011;18004;48.416;10.066;2023-10-31T08:11:45;4.78;;;3.25;;
31368;SDS011;18004;48.416;10.066;2023-10-31T08:14:10;6.40;;;3.83;;
31368;SDS011;18004;48.416;10.066;2023-10-31T08:16:36;5.47;;;2.10;;
31368;SDS011;18004;48.416;10.066;2023-10-31T08:19:02;4.43;;;2.25;;
31368;SDS011;18004;48.416;10.066;2023-10-31T08:21:28;1.05;;;0.95;;
31368;SDS011;18004;48.416;10.066;2023-10-31T08:23:59;2.58;;;0.45;;
31368;SDS011;18004;48.416;10.066;2023-10-31T08:26:25;3.90;;;0.70;;
31368;SDS011;18004;48.416;10.066;2023-10-31T08:28:51;0.52;;;0.47;;
31368;SDS011;18004;48.416;10.066;2023-10-31T08:31:17;3.25;;;0.38;;
31368;SDS011;18004;48.416;10.066;2023-10-31T08:33:42;1.92;;;0.40;;
31368;SDS011;18004;48.416;10.066;2023-10-31T08:36:08;1.02;;;0.57;;
31368;SDS011;18004;48.416;10.066;2023-10-31T08:38:34;0.63;;;0.50;;
31368;SDS011;18004;48.416;10.066;2023-10-31T08:41:00;1.02;;;0.57;;
31368;SDS011;18004;48.416;10.066;2023-10-31T08:43:26;0.40;;;0.38;;
31368;SDS011;18004;48.416;10.066;2023-10-31T08:45:52;0.28;;;0.28;;
31368;SDS011;18004;48.416;10.066;2023-10-31T08:48:17;2.83;;;0.60;;
31368;SDS011;18004;48.416;10.066;2023-10-31T08:50:43;0.68;;;0.30;;
31368;SDS011;18004;48.416;10.066;2023-10-31T08:53:09;0.80;;;0.30;;
31368;SDS011;18004;48.416;10.066;2023-10-31T08:55:35;0.93;;;0.38;;
31368;SDS011;18004;48.416;10.066;2023-10-31T08:58:01;1.77;;;0.52;;
31368;SDS011;18004;48.416;10.066;2023-10-31T09:00:27;2.50;;;0.40;;
31368;SDS011;18004;48.416;10.066;2023-10-31T09:02:54;0.50;;;0.50;;
31368;SDS011;18004;48.416;10.066;2023-10-31T09:05:20;1.00;;;0.47;;
31368;SDS011;18004;48.416;10.066;2023-10-31T09:07:45;2.05;;;0.40;;
31368;SDS011;18004;48.416;10.066;2023-10-31T09:10:11;0.77;;;0.40;;
31368;SDS011;18004;48.416;10.066;2023-10-31T09:12:37;3.40;;;0.30;;
31368;SDS011;18004;48.416;10.066;2023-10-31T09:15:04;1.27;;;0.55;;
31368;SDS011;18004;48.416;10.066;2023-10-31T09:17:30;0.30;;;0.30;;
31368;SDS011;18004;48.416;10.066;2023-10-31T09:19:56;0.68;;;0.47;;
31368;SDS011;18004;48.416;10.066;2023-10-31T09:22:22;2.47;;;0.80;;
31368;SDS011;18004;48.416;10.066;2023-10-31T09:24:47;1.55;;;0.40;;
31368;SDS011;18004;48.416;10.066;2023-10-31T09:27:13;0.63;;;0.35;;
31368;SDS011;18004;48.416;10.066;2023-10-31T09:29:39;2.75;;;0.50;;
31368;SDS011;18004;48.416;10.066;2023-10-31T09:32:06;2.00;;;0.60;;
31368;SDS011;18004;48.416;10.066;2023-10-31T09:34:32;2.05;;;0.50;;
31368;SDS011;18004;48.416;10.066;2023-10-31T09:36:58;0.30;;;0.30;;
31368;SDS011;18004;48.416;10.066;2023-10-31T09:39:24;2.20;;;0.60;;
31368;SDS011;18004;48.416;10.066;2023-10-31T09:41:49;1.17;;;0.43;;
31368;SDS011;18004;48.416;10.066;2023-10-31T09:44:15;4.65;;;1.00;;
31368;SDS011;18004;48.416;10.066;2023-10-31T09:46:41;0.52;;;0.32;;
31368;SDS011;18004;48.416;10.066;2023-10-31T09:49:08;1.83;;;0.30;;
31368;SDS011;18004;48.416;10.066;2023-10-31T09:51:36;1.10;;;0.50;;
31368;SDS011;18004;48.416;10.066;2023-10-31T09:54:02;2.20;;;0.80;;
31368;SDS011;18004;48.416;10.066;2023-10-31T09:56:30;0.50;;;0.40;;
31368;SDS011;18004;48.416;10.066;2023-10-31T09:59:03;2.75;;;0.60;;
31368;SDS011;18004;48.416;10.066;2023-10-31T10:01:29;1.25;;;0.65;;
31368;SDS011;18004;48.416;10.066;2023-10-31T10:03:56;1.58;;;0.47;;
31368;SDS011;18004;48.416;10.066;2023-10-31T10:06:21;1.50;;;0.52;;
31368;SDS011;18004;48.416;10.066;2023-10-31T10:08:49;3.83;;;1.38;;
31368;SDS011;18004;48.416;10.066;2023-10-31T10:11:15;1.85;;;0.55;;
31368;SDS011;18004;48.416;10.066;2023-10-31T10:13:41;3.10;;;0.80;;
31368;SDS011;18004;48.416;10.066;2023-10-31T10:16:06;7.90;;;2.13;;
31368;SDS011;18004;48.416;10.066;2023-10-31T10:18:33;10.15;;;1.67;;
31368;SDS011;18004;48.416;10.066;2023-10-31T10:21:03;2.72;;;2.03;;
31368;SDS011;18004;48.416;10.066;2023-10-31T10:23:31;3.03;;;1.80;;
31368;SDS011;18004;48.416;10.066;2023-10-31T10:25:57;0.70;;;0.60;;
31368;SDS011;18004;48.416;10.066;2023-10-31T10:28:24;2.75;;;0.82;;
31368;SDS011;18004;48.416;10.066;2023-10-31T10:30:50;4.28;;;1.33;;
31368;SDS011;18004;48.416;10.066;2023-10-31T10:33:17;2.58;;;1.40;;
31368;SDS011;18004;48.416;10.066;2023-10-31T10:35:44;5.63;;;2.45;;
31368;SDS011;18004;48.416;10.066;2023-10-31T10:38:11;2.85;;;1.85;;
31368;SDS011;18004;48.416;10.066;2023-10-31T10:40:42;3.58;;;1.42;;
31368;SDS011;18004;48.416;10.066;2023-10-31T10:43:13;2.07;;;1.50;;
31368;SDS011;18004;48.416;10.066;2023-10-31T10:45:44;5.78;;;0.80;;
31368;SDS011;18004;48.416;10.066;2023-10-31T10:48:11;3.20;;;1.30;;
31368;SDS011;18004;48.416;10.066;2023-10-31T10:50:41;4.75;;;1.00;;
31368;SDS011;18004;48.416;10.066;2023-10-31T10:53:22;1.35;;;0.57;;
31368;SDS011;18004;48.416;10.066;2023-10-31T10:55:53;3.75;;;0.80;;
31368;SDS011;18004;48.416;10.066;2023-10-31T10:58:22;5.47;;;0.65;;
31368;SDS011;18004;48.416;10.066;2023-10-31T11:01:16;2.40;;;1.50;;
31368;SDS011;18004;48.416;10.066;2023-10-31T11:03:44;2.60;;;1.02;;
31368;SDS011;18004;48.416;10.066;2023-10-31T11:06:11;2.20;;;0.60;;
31368;SDS011;18004;48.416;10.066;2023-10-31T11:08:38;6.13;;;1.20;;
31368;SDS011;18004;48.416;10.066;2023-10-31T11:11:05;2.55;;;0.80;;
31368;SDS011;18004;48.416;10.066;2023-10-31T11:13:31;2.35;;;0.80;;
31368;SDS011;18004;48.416;10.066;2023-10-31T11:15:59;3.03;;;1.52;;
31368;SDS011;18004;48.416;10.066;2023-10-31T11:18:33;2.63;;;1.20;;
31368;SDS011;18004;48.416;10.066;2023-10-31T11:20:58;3.67;;;2.47;;
31368;SDS011;18004;48.416;10.066;2023-10-31T11:23:24;4.85;;;3.20;;
31368;SDS011;18004;48.416;10.066;2023-10-31T11:25:52;4.18;;;1.83;;
31368;SDS011;18004;48.416;10.066;2023-10-31T11:28:19;2.00;;;0.60;;
31368;SDS011;18004;48.416;10.066;2023-10-31T11:30:45;2.72;;;0.85;;
31368;SDS011;18004;48.416;10.066;2023-10-31T11:33:14;4.30;;;0.50;;
31368;SDS011;18004;48.416;10.066;2023-10-31T11:35:43;0.85;;;0.55;;
31368;SDS011;18004;48.416;10.066;2023-10-31T11:38:14;2.65;;;0.80;;
31368;SDS011;18004;48.416;10.066;2023-10-31T11:43:15;1.95;;;0.50;;
31368;SDS011;18004;48.416;10.066;2023-10-31T11:45:42;1.83;;;0.63;;
31368;SDS011;18004;48.416;10.066;2023-10-31T11:48:13;3.40;;;2.25;;
31368;SDS011;18004;48.416;10.066;2023-10-31T11:50:40;3.30;;;2.20;;
31368;SDS011;18004;48.416;10.066;2023-10-31T11:53:10;7.85;;;2.33;;
31368;SDS011;18004;48.416;10.066;2023-10-31T11:55:44;2.25;;;0.95;;
31368;SDS011;18004;48.416;10.066;2023-10-31T11:58:21;3.30;;;1.33;;
31368;SDS011;18004;48.416;10.066;2023-10-31T12:01:05;0.85;;;0.55;;
31368;SDS011;18004;48.416;10.066;2023-10-31T12:03:42;1.02;;;0.63;;
31368;SDS011;18004;48.416;10.066;2023-10-31T12:06:13;1.35;;;1.13;;
31368;SDS011;18004;48.416;10.066;2023-10-31T12:08:40;3.47;;;2.35;;
31368;SDS011;18004;48.416;10.066;2023-10-31T12:11:11;5.07;;;2.58;;
31368;SDS011;18004;48.416;10.066;2023-10-31T12:13:42;1.05;;;0.82;;
31368;SDS011;18004;48.416;10.066;2023-10-31T12:16:16;0.40;;;0.40;;
31368;SDS011;18004;48.416;10.066;2023-10-31T12:18:43;2.75;;;2.22;;
31368;SDS011;18004;48.416;10.066;2023-10-31T12:21:09;1.60;;;0.80;;
31368;SDS011;18004;48.416;10.066;2023-10-31T12:23:37;6.20;;;1.88;;
31368;SDS011;18004;48.416;10.066;2023-10-31T12:26:03;3.50;;;0.77;;
31368;SDS011;18004;48.416;10.066;2023-10-31T12:28:29;0.90;;;0.32;;
31368;SDS011;18004;48.416;10.066;2023-10-31T12:30:55;0.30;;;0.30;;
31368;SDS011;18004;48.416;10.066;2023-10-31T12:33:22;1.83;;;0.30;;
31368;SDS011;18004;48.416;10.066;2023-10-31T12:35:51;0.65;;;0.30;;
31368;SDS011;18004;48.416;10.066;2023-10-31T12:38:21;2.72;;;0.50;;
31368;SDS011;18004;48.416;10.066;2023-10-31T12:40:47;1.23;;;0.63;;
31368;SDS011;18004;48.416;10.066;2023-10-31T12:43:14;3.67;;;0.60;;
31368;SDS011;18004;48.416;10.066;2023-10-31T12:45:41;1.05;;;0.57;;
31368;SDS011;18004;48.416;10.066;2023-10-31T12:48:08;0.43;;;0.43;;
31368;SDS011;18004;48.416;10.066;2023-10-31T12:50:35;2.65;;;0.30;;
31368;SDS011;18004;48.416;10.066;2023-10-31T12:53:03;0.43;;;0.30;;
31368;SDS011;18004;48.416;10.066;2023-10-31T12:55:30;1.48;;;0.70;;
31368;SDS011;18004;48.416;10.066;2023-10-31T12:57:57;1.70;;;1.25;;
31368;SDS011;18004;48.416;10.066;2023-10-31T13:00:30;7.30;;;4.63;;
31368;SDS011;18004;48.416;10.066;2023-10-31T13:03:01;4.50;;;2.67;;
31368;SDS011;18004;48.416;10.066;2023-10-31T13:07:55;12.07;;;7.43;;
31368;SDS011;18004;48.416;10.066;2023-10-31T13:10:31;6.97;;;5.50;;
31368;SDS011;18004;48.416;10.066;2023-10-31T13:12:58;3.15;;;1.13;;
31368;SDS011;18004;48.416;10.066;2023-10-31T13:15:24;2.08;;;0.77;;
31368;SDS011;18004;48.416;10.066;2023-10-31T13:17:50;2.20;;;1.05;;
31368;SDS011;18004;48.416;10.066;2023-10-31T13:20:20;2.45;;;0.93;;
31368;SDS011;18004;48.416;10.066;2023-10-31T13:22:46;1.40;;;0.50;;
31368;SDS011;18004;48.416;10.066;2023-10-31T13:25:13;2.03;;;0.50;;
31368;SDS011;18004;48.416;10.066;2023-10-31T13:27:41;3.35;;;0.50;;
31368;SDS011;18004;48.416;10.066;2023-10-31T13:30:12;0.50;;;0.50;;
31368;SDS011;18004;48.416;10.066;2023-10-31T13:32:42;0.90;;;0.70;;
31368;SDS011;18004;48.416;10.066;2023-10-31T13:35:07;0.45;;;0.45;;
31368;SDS011;18004;48.416;10.066;2023-10-31T13:37:34;0.60;;;0.50;;
31368;SDS011;18004;48.416;10.066;2023-10-31T13:40:01;0.70;;;0.50;;
31368;SDS011;18004;48.416;10.066;2023-10-31T13:42:27;0.45;;;0.45;;
31368;SDS011;18004;48.416;10.066;2023-10-31T13:44:53;0.43;;;0.43;;
31368;SDS011;18004;48.416;10.066;2023-10-31T13:47:19;0.73;;;0.60;;
31368;SDS011;18004;48.416;10.066;2023-10-31T13:49:45;1.45;;;0.70;;
31368;SDS011;18004;48.416;10.066;2023-10-31T13:52:11;0.70;;;0.50;;
31368;SDS011;18004;48.416;10.066;2023-10-31T13:54:37;1.80;;;0.57;;
31368;SDS011;18004;48.416;10.066;2023-10-31T13:57:03;3.92;;;0.80;;
31368;SDS011;18004;48.416;10.066;2023-10-31T13:59:29;0.52;;;0.30;;
31368;SDS011;18004;48.416;10.066;2023-10-31T14:01:55;2.60;;;0.35;;
31368;SDS011;18004;48.416;10.066;2023-10-31T14:04:20;2.33;;;1.02;;
31368;SDS011;18004;48.416;10.066;2023-10-31T14:06:46;7.82;;;2.45;;
31368;SDS011;18004;48.416;10.066;2023-10-31T14:09:12;3.70;;;1.65;;
31368;SDS011;18004;48.416;10.066;2023-10-31T14:11:39;2.53;;;1.58;;
31368;SDS011;18004;48.416;10.066;2023-10-31T14:14:06;4.00;;;1.80;;
31368;SDS011;18004;48.416;10.066;2023-10-31T14:16:34;5.32;;;2.65;;
31368;SDS011;18004;48.416;10.066;2023-10-31T14:19:04;6.07;;;3.50;;
31368;SDS011;18004;48.416;10.066;2023-10-31T14:21:31;0.98;;;0.50;;
31368;SDS011;18004;48.416;10.066;2023-10-31T14:23:58;1.75;;;0.45;;
31368;SDS011;18004;48.416;10.066;2023-10-31T14:26:24;5.05;;;0.50;;
31368;SDS011;18004;48.416;10.066;2023-10-31T14:28:50;0.45;;;0.30;;
31368;SDS011;18004;48.416;10.066;2023-10-31T14:31:15;1.17;;;0.40;;
31368;SDS011;18004;48.416;10.066;2023-10-31T14:33:42;5.82;;;0.75;;
31368;SDS011;18004;48.416;10.066;2023-10-31T14:36:08;0.90;;;0.50;;